^^
Saratoga-Weather Station Historical Data
Daily Summary for May 30, 2021 Units:  Both    English   Metric
Daily Weekly Monthly Yearly Custom
  High: Low: Average:
Temperature: 77.7 °F /  25.4 °C 52.2 °F /  11.2 °C 65.5 °F /  18.6 °C
Dew Point: 60.8 °F /  16 °C 50.7 °F /  10.4 °C 55.9 °F /  13.3 °C
Humidity: 96% 48% 73%
Wind Speed: 14.1mph /  22.7km/h - 1.7mph /  2.8km/h
Wind Gust: 14mph /  22.5km/h - -
Wind- - WSW
Pressure: 29.9 in /  1011.9 hPa 29.8 in /  1007.5 hPa -
Precipitation: 0 in /  0.0 mm    
Historical Graphs
 
 
Tabular Data for May 30, 2021
Time Temperature Dew Point Pressure Wind Wind Speed Wind Gust Humidity Rainfall Rate (Hourly) solar
00:01 58.8 °F /  14.9 °C 54.3 °F /  12.4 °C 29.9in /  1011.9hPa Calm     85% 0in /  0.0mm 0 W/m2
00:06 58.6 °F /  14.8 °C 54.1 °F /  12.3 °C 29.9in /  1011.9hPa Calm     85% 0in /  0.0mm 0 W/m2
00:11 58.6 °F /  14.8 °C 54.1 °F /  12.3 °C 29.9in /  1011.9hPa Calm     85% 0in /  0.0mm 0 W/m2
00:16 58.5 °F /  14.7 °C 54 °F /  12.2 °C 29.9in /  1011.9hPa Calm     85% 0in /  0.0mm 0 W/m2
00:21 58.5 °F /  14.7 °C 54.3 °F /  12.4 °C 29.9in /  1011.9hPa Calm     86% 0in /  0.0mm 0 W/m2
00:26 58.3 °F /  14.6 °C 54.1 °F /  12.3 °C 29.9in /  1011.9hPa Calm     86% 0in /  0.0mm 0 W/m2
00:43 57.9 °F /  14.4 °C 53.8 °F /  12.1 °C 29.9in /  1011.9hPa Calm     86% 0in /  0.0mm 0 W/m2
00:48 57.7 °F /  14.3 °C 54 °F /  12.2 °C 29.9in /  1011.9hPa Calm     87% 0in /  0.0mm 0 W/m2
00:53 57.6 °F /  14.2 °C 53.8 °F /  12.1 °C 29.9in /  1011.9hPa Calm     87% 0in /  0.0mm 0 W/m2
00:58 57.6 °F /  14.2 °C 53.8 °F /  12.1 °C 29.9in /  1011.9hPa Calm     87% 0in /  0.0mm 0 W/m2
01:03 57.4 °F /  14.1 °C 53.8 °F /  12.1 °C 29.9in /  1011.9hPa Calm     88% 0in /  0.0mm 0 W/m2
01:08 57.2 °F /  14 °C 53.6 °F /  12 °C 29.9in /  1011.9hPa Calm     88% 0in /  0.0mm 0 W/m2
01:13 57 °F /  13.9 °C 53.4 °F /  11.9 °C 29.9in /  1011.9hPa Calm     88% 0in /  0.0mm 0 W/m2
01:18 57 °F /  13.9 °C 53.4 °F /  11.9 °C 29.9in /  1011.9hPa Calm     88% 0in /  0.0mm 0 W/m2
01:23 56.8 °F /  13.8 °C 53.2 °F /  11.8 °C 29.9in /  1011.9hPa Calm     88% 0in /  0.0mm 0 W/m2
01:28 56.8 °F /  13.8 °C 53.6 °F /  12 °C 29.9in /  1011.9hPa Calm     89% 0in /  0.0mm 0 W/m2
01:33 56.7 °F /  13.7 °C 53.4 °F /  11.9 °C 29.9in /  1011.9hPa Calm     89% 0in /  0.0mm 0 W/m2
01:38 56.7 °F /  13.7 °C 53.4 °F /  11.9 °C 29.9in /  1011.9hPa Calm     89% 0in /  0.0mm 0 W/m2
01:43 56.7 °F /  13.7 °C 53.4 °F /  11.9 °C 29.9in /  1011.9hPa Calm     89% 0in /  0.0mm 0 W/m2
01:48 56.5 °F /  13.6 °C 53.2 °F /  11.8 °C 29.9in /  1011.5hPa Calm     89% 0in /  0.0mm 0 W/m2
01:53 56.5 °F /  13.6 °C 53.2 °F /  11.8 °C 29.9in /  1011.5hPa Calm     89% 0in /  0.0mm 0 W/m2
01:58 56.1 °F /  13.4 °C 52.9 °F /  11.6 °C 29.9in /  1011.5hPa SW 0.9mph /  1.4km/h 1mph /  1.6km/h 89% 0in /  0.0mm 0 W/m2
02:03 55.9 °F /  13.3 °C 52.7 °F /  11.5 °C 29.9in /  1011.5hPa Calm     89% 0in /  0.0mm 0 W/m2
02:08 55.9 °F /  13.3 °C 53.1 °F /  11.7 °C 29.9in /  1011.5hPa Calm     90% 0in /  0.0mm 0 W/m2
02:13 55.8 °F /  13.2 °C 52.9 °F /  11.6 °C 29.9in /  1011.5hPa Calm     90% 0in /  0.0mm 0 W/m2
02:18 55.8 °F /  13.2 °C 52.9 °F /  11.6 °C 29.9in /  1011.5hPa Calm     90% 0in /  0.0mm 0 W/m2
02:23 55.6 °F /  13.1 °C 52.7 °F /  11.5 °C 29.9in /  1011.5hPa Calm     90% 0in /  0.0mm 0 W/m2
02:28 55.6 °F /  13.1 °C 52.7 °F /  11.5 °C 29.9in /  1011.5hPa Calm     90% 0in /  0.0mm 0 W/m2
02:33 55.4 °F /  13 °C 52.5 °F /  11.4 °C 29.9in /  1011.5hPa Calm     90% 0in /  0.0mm 0 W/m2
02:38 55.2 °F /  12.9 °C 52.7 °F /  11.5 °C 29.9in /  1011.5hPa Calm     91% 0in /  0.0mm 0 W/m2
02:43 55 °F /  12.8 °C 52.5 °F /  11.4 °C 29.9in /  1011.5hPa Calm     91% 0in /  0.0mm 0 W/m2
02:48 55 °F /  12.8 °C 52.5 °F /  11.4 °C 29.9in /  1011.5hPa Calm     91% 0in /  0.0mm 0 W/m2
02:53 55 °F /  12.8 °C 52.5 °F /  11.4 °C 29.9in /  1011.5hPa Calm     91% 0in /  0.0mm 0 W/m2
02:58 54.9 °F /  12.7 °C 52.3 °F /  11.3 °C 29.9in /  1011.5hPa Calm     91% 0in /  0.0mm 0 W/m2
03:03 54.9 °F /  12.7 °C 52.3 °F /  11.3 °C 29.9in /  1011.5hPa Calm     91% 0in /  0.0mm 0 W/m2
03:08 54.7 °F /  12.6 °C 52.2 °F /  11.2 °C 29.9in /  1011.5hPa Calm     91% 0in /  0.0mm 0 W/m2
03:13 54.7 °F /  12.6 °C 52.2 °F /  11.2 °C 29.9in /  1011.5hPa Calm     91% 0in /  0.0mm 0 W/m2
03:18 54.3 °F /  12.4 °C 52 °F /  11.1 °C 29.9in /  1011.5hPa Calm     92% 0in /  0.0mm 0 W/m2
03:23 54.3 °F /  12.4 °C 52 °F /  11.1 °C 29.9in /  1011.5hPa Calm     92% 0in /  0.0mm 0 W/m2
03:28 54.1 °F /  12.3 °C 51.8 °F /  11 °C 29.9in /  1011.5hPa Calm     92% 0in /  0.0mm 0 W/m2
03:34 54.1 °F /  12.3 °C 51.8 °F /  11 °C 29.9in /  1011.5hPa Calm     92% 0in /  0.0mm 0 W/m2
03:39 54 °F /  12.2 °C 51.6 °F /  10.9 °C 29.9in /  1011.5hPa Calm     92% 0in /  0.0mm 0 W/m2
03:44 54 °F /  12.2 °C 52 °F /  11.1 °C 29.9in /  1011.2hPa Calm     93% 0in /  0.0mm 0 W/m2
03:49 54 °F /  12.2 °C 52 °F /  11.1 °C 29.9in /  1011.2hPa Calm     93% 0in /  0.0mm 0 W/m2
03:54 53.8 °F /  12.1 °C 51.8 °F /  11 °C 29.9in /  1011.2hPa Calm     93% 0in /  0.0mm 0 W/m2
03:59 53.8 °F /  12.1 °C 51.8 °F /  11 °C 29.9in /  1011.2hPa Calm     93% 0in /  0.0mm 0 W/m2
04:04 53.6 °F /  12 °C 51.6 °F /  10.9 °C 29.9in /  1011.2hPa Calm     93% 0in /  0.0mm 0 W/m2
04:09 53.4 °F /  11.9 °C 51.4 °F /  10.8 °C 29.9in /  1011.2hPa Calm     93% 0in /  0.0mm 0 W/m2
04:14 53.4 °F /  11.9 °C 51.4 °F /  10.8 °C 29.9in /  1011.2hPa Calm     93% 0in /  0.0mm 0 W/m2
04:19 53.2 °F /  11.8 °C 51.3 °F /  10.7 °C 29.9in /  1011.2hPa Calm     93% 0in /  0.0mm 0 W/m2
04:24 53.2 °F /  11.8 °C 51.3 °F /  10.7 °C 29.9in /  1011.2hPa Calm     93% 0in /  0.0mm 0 W/m2
04:29 53.1 °F /  11.7 °C 51.1 °F /  10.6 °C 29.9in /  1011.2hPa Calm     93% 0in /  0.0mm 0 W/m2
04:34 53.1 °F /  11.7 °C 51.1 °F /  10.6 °C 29.9in /  1011.2hPa Calm     93% 0in /  0.0mm 0 W/m2
04:39 53.1 °F /  11.7 °C 51.4 °F /  10.8 °C 29.9in /  1011.2hPa Calm     94% 0in /  0.0mm 0 W/m2
04:44 53.1 °F /  11.7 °C 51.4 °F /  10.8 °C 29.9in /  1011.2hPa Calm     94% 0in /  0.0mm 0 W/m2
04:49 53.1 °F /  11.7 °C 51.4 °F /  10.8 °C 29.9in /  1011.2hPa Calm     94% 0in /  0.0mm 0 W/m2
04:54 53.1 °F /  11.7 °C 51.4 °F /  10.8 °C 29.9in /  1011.2hPa Calm     94% 0in /  0.0mm 0 W/m2
04:59 53.1 °F /  11.7 °C 51.4 °F /  10.8 °C 29.9in /  1011.2hPa Calm     94% 0in /  0.0mm 0 W/m2
05:04 53.1 °F /  11.7 °C 51.4 °F /  10.8 °C 29.9in /  1011.2hPa Calm     94% 0in /  0.0mm 0 W/m2
05:09 52.9 °F /  11.6 °C 51.3 °F /  10.7 °C 29.9in /  1011.2hPa Calm     94% 0in /  0.0mm 0 W/m2
05:14 52.9 °F /  11.6 °C 51.3 °F /  10.7 °C 29.9in /  1011.2hPa Calm     94% 0in /  0.0mm 0 W/m2
05:19 52.7 °F /  11.5 °C 51.1 °F /  10.6 °C 29.9in /  1010.8hPa Calm     94% 0in /  0.0mm 0 W/m2
05:24 52.5 °F /  11.4 °C 50.9 °F /  10.5 °C 29.9in /  1010.8hPa Calm     94% 0in /  0.0mm 0 W/m2
05:29 52.5 °F /  11.4 °C 50.9 °F /  10.5 °C 29.9in /  1010.8hPa Calm     94% 0in /  0.0mm 0 W/m2
05:34 52.5 °F /  11.4 °C 50.9 °F /  10.5 °C 29.9in /  1010.8hPa Calm     94% 0in /  0.0mm 0 W/m2
05:39 52.3 °F /  11.3 °C 50.7 °F /  10.4 °C 29.9in /  1010.8hPa Calm     94% 0in /  0.0mm 0 W/m2
05:44 52.3 °F /  11.3 °C 50.7 °F /  10.4 °C 29.9in /  1010.8hPa Calm     94% 0in /  0.0mm 0 W/m2
05:49 52.3 °F /  11.3 °C 50.9 °F /  10.5 °C 29.9in /  1010.8hPa Calm     95% 0in /  0.0mm 0 W/m2
05:54 52.3 °F /  11.3 °C 50.9 °F /  10.5 °C 29.9in /  1010.8hPa Calm     95% 0in /  0.0mm 0 W/m2
05:59 52.3 °F /  11.3 °C 50.9 °F /  10.5 °C 29.9in /  1010.8hPa Calm     95% 0in /  0.0mm 0 W/m2
06:04 52.3 °F /  11.3 °C 50.9 °F /  10.5 °C 29.9in /  1010.8hPa Calm     95% 0in /  0.0mm 0 W/m2
06:24 52.3 °F /  11.3 °C 50.9 °F /  10.5 °C 29.9in /  1010.8hPa Calm     95% 0in /  0.0mm 12 W/m2
06:29 52.3 °F /  11.3 °C 50.9 °F /  10.5 °C 29.9in /  1010.8hPa Calm     95% 0in /  0.0mm 14 W/m2
06:34 52.3 °F /  11.3 °C 50.9 °F /  10.5 °C 29.9in /  1010.8hPa Calm     95% 0in /  0.0mm 16 W/m2
06:39 52.2 °F /  11.2 °C 50.7 °F /  10.4 °C 29.9in /  1010.8hPa Calm     95% 0in /  0.0mm 18 W/m2
06:44 52.3 °F /  11.3 °C 50.9 °F /  10.5 °C 29.9in /  1010.8hPa Calm     95% 0in /  0.0mm 18 W/m2
07:01 52.3 °F /  11.3 °C 50.9 °F /  10.5 °C 29.9in /  1010.8hPa Calm     95% 0in /  0.0mm 25 W/m2
07:06 52.5 °F /  11.4 °C 51.1 °F /  10.6 °C 29.9in /  1010.8hPa Calm     95% 0in /  0.0mm 25 W/m2
07:11 52.5 °F /  11.4 °C 51.1 °F /  10.6 °C 29.9in /  1010.8hPa Calm     95% 0in /  0.0mm 26 W/m2
07:16 52.5 °F /  11.4 °C 51.1 °F /  10.6 °C 29.9in /  1010.8hPa Calm     95% 0in /  0.0mm 26 W/m2
07:21 52.9 °F /  11.6 °C 51.8 °F /  11 °C 29.9in /  1010.8hPa Calm     96% 0in /  0.0mm 30 W/m2
07:26 53.1 °F /  11.7 °C 52 °F /  11.1 °C 29.9in /  1010.8hPa Calm     96% 0in /  0.0mm 32 W/m2
07:31 53.2 °F /  11.8 °C 52.2 °F /  11.2 °C 29.8in /  1010.5hPa SW 0.9mph /  1.4km/h 1mph /  1.6km/h 96% 0in /  0.0mm 33 W/m2
07:36 53.8 °F /  12.1 °C 52.7 °F /  11.5 °C 29.8in /  1010.5hPa Calm   1mph /  1.6km/h 96% 0in /  0.0mm 39 W/m2
07:41 54 °F /  12.2 °C 52.9 °F /  11.6 °C 29.8in /  1010.5hPa Calm     96% 0in /  0.0mm 40 W/m2
07:46 54.1 °F /  12.3 °C 53.1 °F /  11.7 °C 29.9in /  1010.8hPa Calm     96% 0in /  0.0mm 46 W/m2
07:51 54.5 °F /  12.5 °C 53.4 °F /  11.9 °C 29.8in /  1010.5hPa Calm     96% 0in /  0.0mm 49 W/m2
07:56 54.9 °F /  12.7 °C 53.8 °F /  12.1 °C 29.8in /  1010.5hPa Calm     96% 0in /  0.0mm 53 W/m2
08:01 55 °F /  12.8 °C 53.6 °F /  12 °C 29.9in /  1010.8hPa Calm     95% 0in /  0.0mm 62 W/m2
08:06 55.6 °F /  13.1 °C 54.1 °F /  12.3 °C 29.9in /  1010.8hPa Calm     95% 0in /  0.0mm 49 W/m2
08:11 56.1 °F /  13.4 °C 54.7 °F /  12.6 °C 29.8in /  1010.5hPa Calm     95% 0in /  0.0mm 40 W/m2
08:16 57.2 °F /  14 °C 55.4 °F /  13 °C 29.8in /  1010.5hPa Calm     94% 0in /  0.0mm 44 W/m2
08:21 57.9 °F /  14.4 °C 55.9 °F /  13.3 °C 29.8in /  1010.5hPa Calm     93% 0in /  0.0mm 47 W/m2
08:26 58.8 °F /  14.9 °C 55.9 °F /  13.3 °C 29.8in /  1010.5hPa Calm   2mph /  3.2km/h 90% 0in /  0.0mm 47 W/m2
08:31 59.9 °F /  15.5 °C 56.3 °F /  13.5 °C 29.8in /  1010.5hPa Calm   1mph /  1.6km/h 88% 0in /  0.0mm 47 W/m2
08:36 61 °F /  16.1 °C 57 °F /  13.9 °C 29.8in /  1010.5hPa Calm   3mph /  4.8km/h 87% 0in /  0.0mm 49 W/m2
08:41 61.9 °F /  16.6 °C 56.7 °F /  13.7 °C 29.8in /  1010.5hPa Calm   3mph /  4.8km/h 83% 0in /  0.0mm 51 W/m2
08:46 62.1 °F /  16.7 °C 56.8 °F /  13.8 °C 29.8in /  1010.5hPa ENE 2mph /  3.2km/h 2mph /  3.2km/h 83% 0in /  0.0mm 53 W/m2
08:51 62.2 °F /  16.8 °C 57 °F /  13.9 °C 29.8in /  1010.5hPa NE 0.9mph /  1.4km/h 2mph /  3.2km/h 83% 0in /  0.0mm 56 W/m2
08:56 62.6 °F /  17 °C 57 °F /  13.9 °C 29.8in /  1010.5hPa ENE 0.9mph /  1.4km/h 2mph /  3.2km/h 82% 0in /  0.0mm 155 W/m2
09:01 63 °F /  17.2 °C 57 °F /  13.9 °C 29.8in /  1010.5hPa ENE 0.9mph /  1.4km/h 3mph /  4.8km/h 81% 0in /  0.0mm 323 W/m2
09:06 63.1 °F /  17.3 °C 57.2 °F /  14 °C 29.8in /  1010.5hPa NE 0.9mph /  1.4km/h 2mph /  3.2km/h 81% 0in /  0.0mm 364 W/m2
09:12 63.5 °F /  17.5 °C 57.6 °F /  14.2 °C 29.8in /  1010.5hPa NE 0.9mph /  1.4km/h 2mph /  3.2km/h 81% 0in /  0.0mm 380 W/m2
09:17 63.9 °F /  17.7 °C 57.9 °F /  14.4 °C 29.8in /  1010.5hPa East 0.9mph /  1.4km/h 3mph /  4.8km/h 81% 0in /  0.0mm 399 W/m2
09:22 64.2 °F /  17.9 °C 57.9 °F /  14.4 °C 29.8in /  1010.5hPa NNE 0.9mph /  1.4km/h 2mph /  3.2km/h 80% 0in /  0.0mm 413 W/m2
09:41 65.5 °F /  18.6 °C 58.8 °F /  14.9 °C 29.8in /  1010.2hPa Calm   3mph /  4.8km/h 79% 0in /  0.0mm 429 W/m2
09:46 65.8 °F /  18.8 °C 58.8 °F /  14.9 °C 29.8in /  1010.2hPa ESE 2mph /  3.2km/h 3mph /  4.8km/h 78% 0in /  0.0mm 501 W/m2
09:51 66.2 °F /  19 °C 58.8 °F /  14.9 °C 29.8in /  1010.2hPa ENE 2mph /  3.2km/h 3mph /  4.8km/h 77% 0in /  0.0mm 564 W/m2
09:56 66.6 °F /  19.2 °C 58.8 °F /  14.9 °C 29.8in /  1010.2hPa ENE 2.9mph /  4.7km/h 5mph /  8km/h 76% 0in /  0.0mm 248 W/m2
10:01 66.7 °F /  19.3 °C 59 °F /  15 °C 29.8in /  1010.2hPa East 0.9mph /  1.4km/h 3mph /  4.8km/h 76% 0in /  0.0mm 320 W/m2
10:06 67.5 °F /  19.7 °C 59.5 °F /  15.3 °C 29.8in /  1010.2hPa ESE 0.9mph /  1.4km/h 5mph /  8km/h 76% 0in /  0.0mm 413 W/m2
10:11 68 °F /  20 °C 59.4 °F /  15.2 °C 29.8in /  1010.2hPa NNE 2mph /  3.2km/h 4mph /  6.4km/h 74% 0in /  0.0mm 550 W/m2
10:16 68.7 °F /  20.4 °C 60.1 °F /  15.6 °C 29.8in /  1010.2hPa East 2mph /  3.2km/h 2mph /  3.2km/h 74% 0in /  0.0mm 612 W/m2
10:21 69.3 °F /  20.7 °C 60.3 °F /  15.7 °C 29.8in /  1010.2hPa East 4mph /  6.4km/h 5mph /  8km/h 73% 0in /  0.0mm 527 W/m2
10:26 69.8 °F /  21 °C 60.8 °F /  16 °C 29.8in /  1010.2hPa NE 2mph /  3.2km/h 3mph /  4.8km/h 73% 0in /  0.0mm 645 W/m2
10:31 70.2 °F /  21.2 °C 60.6 °F /  15.9 °C 29.8in /  1010.2hPa NNW 2.9mph /  4.7km/h 5mph /  8km/h 72% 0in /  0.0mm 643 W/m2
10:36 70.7 °F /  21.5 °C 60.4 °F /  15.8 °C 29.8in /  1010.2hPa WNW 4mph /  6.4km/h 6mph /  9.7km/h 70% 0in /  0.0mm 684 W/m2
10:41 71.1 °F /  21.7 °C 59.5 °F /  15.3 °C 29.8in /  1010.2hPa South 0.9mph /  1.4km/h 3mph /  4.8km/h 67% 0in /  0.0mm 691 W/m2
10:46 71.8 °F /  22.1 °C 60.3 °F /  15.7 °C 29.8in /  1010.2hPa NW 2.9mph /  4.7km/h 4mph /  6.4km/h 67% 0in /  0.0mm 642 W/m2
10:51 72 °F /  22.2 °C 59.2 °F /  15.1 °C 29.8in /  1009.8hPa NW 2mph /  3.2km/h 4mph /  6.4km/h 64% 0in /  0.0mm 722 W/m2
10:56 72.1 °F /  22.3 °C 58.8 °F /  14.9 °C 29.8in /  1009.8hPa Calm   3mph /  4.8km/h 63% 0in /  0.0mm 800 W/m2
11:01 72.1 °F /  22.3 °C 58.5 °F /  14.7 °C 29.8in /  1009.8hPa NW 0.9mph /  1.4km/h 4mph /  6.4km/h 62% 0in /  0.0mm 341 W/m2
11:06 72.1 °F /  22.3 °C 57.6 °F /  14.2 °C 29.8in /  1009.8hPa NNW 0.9mph /  1.4km/h 7mph /  11.3km/h 60% 0in /  0.0mm 323 W/m2
11:11 72 °F /  22.2 °C 58.3 °F /  14.6 °C 29.8in /  1009.8hPa NE 2.9mph /  4.7km/h 6mph /  9.7km/h 62% 0in /  0.0mm 679 W/m2
11:16 72.1 °F /  22.3 °C 58.5 °F /  14.7 °C 29.8in /  1009.8hPa West 6.9mph /  11.1km/h 7mph /  11.3km/h 62% 0in /  0.0mm 142 W/m2
11:21 72.3 °F /  22.4 °C 58.1 °F /  14.5 °C 29.8in /  1009.8hPa SSW 6mph /  9.7km/h 8mph /  12.9km/h 61% 0in /  0.0mm 766 W/m2
11:26 72.7 °F /  22.6 °C 58.8 °F /  14.9 °C 29.8in /  1009.5hPa ESE 0.9mph /  1.4km/h 2mph /  3.2km/h 62% 0in /  0.0mm 795 W/m2
11:31 73.4 °F /  23 °C 58.6 °F /  14.8 °C 29.8in /  1009.5hPa WNW 2.9mph /  4.7km/h 5mph /  8km/h 60% 0in /  0.0mm 868 W/m2
11:36 74.1 °F /  23.4 °C 59.4 °F /  15.2 °C 29.8in /  1009.5hPa NNW 2.9mph /  4.7km/h 7mph /  11.3km/h 60% 0in /  0.0mm 895 W/m2
11:41 74.5 °F /  23.6 °C 59.2 °F /  15.1 °C 29.8in /  1009.5hPa WNW 0.9mph /  1.4km/h 9mph /  14.5km/h 59% 0in /  0.0mm 916 W/m2
11:46 74.7 °F /  23.7 °C 58.5 °F /  14.7 °C 29.8in /  1009.5hPa Calm   4mph /  6.4km/h 57% 0in /  0.0mm 916 W/m2
11:51 73.9 °F /  23.3 °C 58.6 °F /  14.8 °C 29.8in /  1009.5hPa NNW 4mph /  6.4km/h 9mph /  14.5km/h 59% 0in /  0.0mm 290 W/m2
11:56 73.6 °F /  23.1 °C 58.3 °F /  14.6 °C 29.8in /  1009.5hPa NNW 4mph /  6.4km/h 7mph /  11.3km/h 59% 0in /  0.0mm 963 W/m2
12:01 73 °F /  22.8 °C 58.3 °F /  14.6 °C 29.8in /  1009.5hPa NW 8.1mph /  13km/h 11mph /  17.7km/h 60% 0in /  0.0mm 216 W/m2
12:06 72.9 °F /  22.7 °C 58.6 °F /  14.8 °C 29.8in /  1009.5hPa NW 0.9mph /  1.4km/h 3mph /  4.8km/h 61% 0in /  0.0mm 865 W/m2
12:12 73.6 °F /  23.1 °C 57.9 °F /  14.4 °C 29.8in /  1009.5hPa WSW 0.9mph /  1.4km/h 5mph /  8km/h 58% 0in /  0.0mm 807 W/m2
12:17 73.9 °F /  23.3 °C 58.3 °F /  14.6 °C 29.8in /  1009.1hPa WNW 2mph /  3.2km/h 5mph /  8km/h 58% 0in /  0.0mm 812 W/m2
12:22 74.5 °F /  23.6 °C 58.3 °F /  14.6 °C 29.8in /  1009.1hPa NNW 0.9mph /  1.4km/h 4mph /  6.4km/h 57% 0in /  0.0mm 849 W/m2
12:42 75 °F /  23.9 °C 59.2 °F /  15.1 °C 29.8in /  1009.1hPa WNW 2mph /  3.2km/h 7mph /  11.3km/h 58% 0in /  0.0mm 912 W/m2
12:47 75.2 °F /  24 °C 58.5 °F /  14.7 °C 29.8in /  1009.1hPa WSW 4mph /  6.4km/h 11mph /  17.7km/h 56% 0in /  0.0mm 874 W/m2
12:52 75.4 °F /  24.1 °C 59 °F /  15 °C 29.8in /  1009.1hPa NW 14.1mph /  22.7km/h 14mph /  22.5km/h 57% 0in /  0.0mm 904 W/m2
12:57 75 °F /  23.9 °C 58.3 °F /  14.6 °C 29.8in /  1008.8hPa NW 0.9mph /  1.4km/h 7mph /  11.3km/h 56% 0in /  0.0mm 984 W/m2
13:02 75.4 °F /  24.1 °C 59 °F /  15 °C 29.8in /  1008.8hPa WNW 2mph /  3.2km/h 10mph /  16.1km/h 57% 0in /  0.0mm 970 W/m2
13:07 75.7 °F /  24.3 °C 59 °F /  15 °C 29.8in /  1008.8hPa West 6mph /  9.7km/h 11mph /  17.7km/h 56% 0in /  0.0mm 954 W/m2
13:12 75.7 °F /  24.3 °C 58.5 °F /  14.7 °C 29.8in /  1008.8hPa WNW 2.9mph /  4.7km/h 6mph /  9.7km/h 55% 0in /  0.0mm 1041 W/m2
13:17 76.3 °F /  24.6 °C 58.5 °F /  14.7 °C 29.8in /  1008.8hPa NW 2mph /  3.2km/h 13mph /  20.9km/h 54% 0in /  0.0mm 949 W/m2
13:22 75.7 °F /  24.3 °C 57.9 °F /  14.4 °C 29.8in /  1008.8hPa NW 2.9mph /  4.7km/h 10mph /  16.1km/h 54% 0in /  0.0mm 272 W/m2
13:27 75.6 °F /  24.2 °C 58.3 °F /  14.6 °C 29.8in /  1008.8hPa NE 4mph /  6.4km/h 9mph /  14.5km/h 55% 0in /  0.0mm 937 W/m2
13:32 75.7 °F /  24.3 °C 58.5 °F /  14.7 °C 29.8in /  1008.8hPa West 4mph /  6.4km/h 10mph /  16.1km/h 55% 0in /  0.0mm 942 W/m2
13:37 75.4 °F /  24.1 °C 58.1 °F /  14.5 °C 29.8in /  1008.8hPa NW 4mph /  6.4km/h 5mph /  8km/h 55% 0in /  0.0mm 962 W/m2
13:42 75.6 °F /  24.2 °C 58.3 °F /  14.6 °C 29.8in /  1008.8hPa WNW 2.9mph /  4.7km/h 9mph /  14.5km/h 55% 0in /  0.0mm 1114 W/m2
13:47 75.7 °F /  24.3 °C 58.5 °F /  14.7 °C 29.8in /  1008.8hPa NNW 2mph /  3.2km/h 7mph /  11.3km/h 55% 0in /  0.0mm 1076 W/m2
13:52 75.9 °F /  24.4 °C 57.6 °F /  14.2 °C 29.8in /  1008.5hPa ENE 0.9mph /  1.4km/h 9mph /  14.5km/h 53% 0in /  0.0mm 984 W/m2
13:57 75.7 °F /  24.3 °C 59 °F /  15 °C 29.8in /  1008.8hPa NNW 4mph /  6.4km/h 8mph /  12.9km/h 56% 0in /  0.0mm 854 W/m2
14:02 75.9 °F /  24.4 °C 58.6 °F /  14.8 °C 29.8in /  1008.8hPa WNW 2.9mph /  4.7km/h 9mph /  14.5km/h 55% 0in /  0.0mm 933 W/m2
14:07 75.7 °F /  24.3 °C 58.5 °F /  14.7 °C 29.8in /  1008.5hPa West 2mph /  3.2km/h 9mph /  14.5km/h 55% 0in /  0.0mm 232 W/m2
14:12 75.9 °F /  24.4 °C 57.6 °F /  14.2 °C 29.8in /  1008.5hPa ESE 2mph /  3.2km/h 10mph /  16.1km/h 53% 0in /  0.0mm 946 W/m2
14:17 76.3 °F /  24.6 °C 58.5 °F /  14.7 °C 29.8in /  1008.5hPa WSW 0.9mph /  1.4km/h 6mph /  9.7km/h 54% 0in /  0.0mm 928 W/m2
14:22 76.5 °F /  24.7 °C 58.6 °F /  14.8 °C 29.8in /  1008.5hPa East 8.9mph /  14.3km/h 10mph /  16.1km/h 54% 0in /  0.0mm 946 W/m2
14:27 76.8 °F /  24.9 °C 59.9 °F /  15.5 °C 29.8in /  1008.5hPa WNW 2.9mph /  4.7km/h 3mph /  4.8km/h 56% 0in /  0.0mm 891 W/m2
14:32 76.8 °F /  24.9 °C 59 °F /  15 °C 29.8in /  1008.5hPa NW 10mph /  16.1km/h 10mph /  16.1km/h 54% 0in /  0.0mm 891 W/m2
14:37 76.6 °F /  24.8 °C 58.3 °F /  14.6 °C 29.8in /  1008.5hPa West 2.9mph /  4.7km/h 6mph /  9.7km/h 53% 0in /  0.0mm 193 W/m2
14:42 76.8 °F /  24.9 °C 59 °F /  15 °C 29.8in /  1008.5hPa NW 2.9mph /  4.7km/h 8mph /  12.9km/h 54% 0in /  0.0mm 958 W/m2
14:47 76.8 °F /  24.9 °C 59.4 °F /  15.2 °C 29.8in /  1008.5hPa NW 2.9mph /  4.7km/h 8mph /  12.9km/h 55% 0in /  0.0mm 884 W/m2
14:52 77 °F /  25 °C 60.1 °F /  15.6 °C 29.8in /  1008.1hPa NE 2mph /  3.2km/h 7mph /  11.3km/h 56% 0in /  0.0mm 882 W/m2
14:57 76.8 °F /  24.9 °C 58.5 °F /  14.7 °C 29.8in /  1008.1hPa West 4mph /  6.4km/h 8mph /  12.9km/h 53% 0in /  0.0mm 886 W/m2
15:02 77.2 °F /  25.1 °C 58.6 °F /  14.8 °C 29.8in /  1008.5hPa NW 10.1mph /  16.3km/h 14mph /  22.5km/h 53% 0in /  0.0mm 896 W/m2
15:07 76.5 °F /  24.7 °C 58.6 °F /  14.8 °C 29.8in /  1008.1hPa NNW 2mph /  3.2km/h 8mph /  12.9km/h 54% 0in /  0.0mm 751 W/m2
15:13 76.6 °F /  24.8 °C 58.3 °F /  14.6 °C 29.8in /  1007.8hPa WSW 2mph /  3.2km/h 14mph /  22.5km/h 53% 0in /  0.0mm 853 W/m2
15:18 76.8 °F /  24.9 °C 58.5 °F /  14.7 °C 29.8in /  1007.8hPa NNE 2mph /  3.2km/h 4mph /  6.4km/h 53% 0in /  0.0mm 169 W/m2
15:23 76.5 °F /  24.7 °C 58.6 °F /  14.8 °C 29.8in /  1007.8hPa West 2.9mph /  4.7km/h 9mph /  14.5km/h 54% 0in /  0.0mm 192 W/m2
15:28 76.3 °F /  24.6 °C 59.4 °F /  15.2 °C 29.8in /  1007.8hPa WNW 8.9mph /  14.3km/h 9mph /  14.5km/h 56% 0in /  0.0mm 889 W/m2
15:33 76.6 °F /  24.8 °C 59.7 °F /  15.4 °C 29.8in /  1007.8hPa West 8.9mph /  14.3km/h 10mph /  16.1km/h 56% 0in /  0.0mm 874 W/m2
15:38 76.6 °F /  24.8 °C 59.2 °F /  15.1 °C 29.8in /  1007.8hPa West 2.9mph /  4.7km/h 8mph /  12.9km/h 55% 0in /  0.0mm 758 W/m2
15:54 77.4 °F /  25.2 °C 58.8 °F /  14.9 °C 29.8in /  1007.5hPa SSE 4mph /  6.4km/h 4mph /  6.4km/h 53% 0in /  0.0mm 847 W/m2
15:59 77.5 °F /  25.3 °C 57.9 °F /  14.4 °C 29.8in /  1007.5hPa NNE 4mph /  6.4km/h 10mph /  16.1km/h 51% 0in /  0.0mm 796 W/m2
16:04 77.7 °F /  25.4 °C 57 °F /  13.9 °C 29.8in /  1007.5hPa West 6mph /  9.7km/h 10mph /  16.1km/h 49% 0in /  0.0mm 867 W/m2
16:09 77.4 °F /  25.2 °C 57.7 °F /  14.3 °C 29.8in /  1007.5hPa ESE 6mph /  9.7km/h 6mph /  9.7km/h 51% 0in /  0.0mm 279 W/m2
16:14 77.4 °F /  25.2 °C 56.1 °F /  13.4 °C 29.8in /  1007.5hPa ENE 2.9mph /  4.7km/h 6mph /  9.7km/h 48% 0in /  0.0mm 425 W/m2
16:19 77.5 °F /  25.3 °C 56.3 °F /  13.5 °C 29.8in /  1007.5hPa West 8.1mph /  13km/h 12mph /  19.3km/h 48% 0in /  0.0mm 448 W/m2
16:24 77.2 °F /  25.1 °C 57 °F /  13.9 °C 29.8in /  1007.5hPa WNW 4mph /  6.4km/h 7mph /  11.3km/h 50% 0in /  0.0mm 288 W/m2
16:29 76.5 °F /  24.7 °C 57 °F /  13.9 °C 29.8in /  1007.5hPa WSW 2mph /  3.2km/h 12mph /  19.3km/h 51% 0in /  0.0mm 229 W/m2
16:34 75.9 °F /  24.4 °C 57 °F /  13.9 °C 29.8in /  1007.5hPa West 6mph /  9.7km/h 11mph /  17.7km/h 52% 0in /  0.0mm 207 W/m2
16:39 75.4 °F /  24.1 °C 57 °F /  13.9 °C 29.8in /  1007.5hPa West 6mph /  9.7km/h 10mph /  16.1km/h 53% 0in /  0.0mm 195 W/m2
16:44 75 °F /  23.9 °C 57.7 °F /  14.3 °C 29.8in /  1007.8hPa West 8.9mph /  14.3km/h 9mph /  14.5km/h 55% 0in /  0.0mm 248 W/m2
16:49 74.8 °F /  23.8 °C 58.6 °F /  14.8 °C 29.8in /  1007.8hPa NW 2.9mph /  4.7km/h 6mph /  9.7km/h 57% 0in /  0.0mm 278 W/m2
16:54 74.8 °F /  23.8 °C 59 °F /  15 °C 29.8in /  1007.8hPa SW 4mph /  6.4km/h 7mph /  11.3km/h 58% 0in /  0.0mm 262 W/m2
16:59 74.8 °F /  23.8 °C 59.5 °F /  15.3 °C 29.8in /  1007.8hPa WSW 2mph /  3.2km/h 7mph /  11.3km/h 59% 0in /  0.0mm 250 W/m2
17:04 74.8 °F /  23.8 °C 59 °F /  15 °C 29.8in /  1007.8hPa NNW 4mph /  6.4km/h 9mph /  14.5km/h 58% 0in /  0.0mm 250 W/m2
17:09 74.7 °F /  23.7 °C 58.8 °F /  14.9 °C 29.8in /  1007.8hPa SW 4.9mph /  7.9km/h 10mph /  16.1km/h 58% 0in /  0.0mm 246 W/m2
17:14 74.5 °F /  23.6 °C 58.8 °F /  14.9 °C 29.8in /  1007.8hPa West 2.9mph /  4.7km/h 12mph /  19.3km/h 58% 0in /  0.0mm 276 W/m2
17:19 74.3 °F /  23.5 °C 59 °F /  15 °C 29.8in /  1007.8hPa NW 4.9mph /  7.9km/h 8mph /  12.9km/h 59% 0in /  0.0mm 269 W/m2
17:24 74.5 °F /  23.6 °C 59.2 °F /  15.1 °C 29.8in /  1007.8hPa WNW 2.9mph /  4.7km/h 6mph /  9.7km/h 59% 0in /  0.0mm 315 W/m2
17:29 74.7 °F /  23.7 °C 58.8 °F /  14.9 °C 29.8in /  1007.8hPa West 2mph /  3.2km/h 5mph /  8km/h 58% 0in /  0.0mm 274 W/m2
17:34 74.7 °F /  23.7 °C 59.4 °F /  15.2 °C 29.8in /  1007.8hPa NW 2.9mph /  4.7km/h 4mph /  6.4km/h 59% 0in /  0.0mm 294 W/m2
17:39 74.5 °F /  23.6 °C 58.8 °F /  14.9 °C 29.8in /  1007.8hPa NW 4mph /  6.4km/h 10mph /  16.1km/h 58% 0in /  0.0mm 199 W/m2
17:44 74.1 °F /  23.4 °C 58.8 °F /  14.9 °C 29.8in /  1007.8hPa West 6.9mph /  11.1km/h 7mph /  11.3km/h 59% 0in /  0.0mm 200 W/m2
18:04 74.7 °F /  23.7 °C 59.4 °F /  15.2 °C 29.8in /  1007.8hPa WNW 4mph /  6.4km/h 6mph /  9.7km/h 59% 0in /  0.0mm 239 W/m2
18:09 75 °F /  23.9 °C 59.7 °F /  15.4 °C 29.8in /  1007.8hPa West 6mph /  9.7km/h 11mph /  17.7km/h 59% 0in /  0.0mm 243 W/m2
18:14 75.2 °F /  24 °C 59.4 °F /  15.2 °C 29.8in /  1007.8hPa West 6.9mph /  11.1km/h 11mph /  17.7km/h 58% 0in /  0.0mm 373 W/m2
18:19 74.8 °F /  23.8 °C 59 °F /  15 °C 29.8in /  1007.8hPa NW 4mph /  6.4km/h 9mph /  14.5km/h 58% 0in /  0.0mm 120 W/m2
18:24 74.1 °F /  23.4 °C 58.8 °F /  14.9 °C 29.8in /  1007.8hPa WNW 4.9mph /  7.9km/h 10mph /  16.1km/h 59% 0in /  0.0mm 118 W/m2
18:29 73.8 °F /  23.2 °C 59.5 °F /  15.3 °C 29.8in /  1007.8hPa WNW 4mph /  6.4km/h 6mph /  9.7km/h 61% 0in /  0.0mm 137 W/m2
18:34 73.9 °F /  23.3 °C 59.2 °F /  15.1 °C 29.8in /  1007.8hPa NNW 4mph /  6.4km/h 5mph /  8km/h 60% 0in /  0.0mm 436 W/m2
18:39 74.1 °F /  23.4 °C 59.7 °F /  15.4 °C 29.8in /  1007.8hPa NW 8.9mph /  14.3km/h 9mph /  14.5km/h 61% 0in /  0.0mm 90 W/m2
18:44 73.9 °F /  23.3 °C 59.2 °F /  15.1 °C 29.8in /  1007.8hPa NNW 0.9mph /  1.4km/h 8mph /  12.9km/h 60% 0in /  0.0mm 107 W/m2
18:49 73.9 °F /  23.3 °C 59.7 °F /  15.4 °C 29.8in /  1007.8hPa West 2.9mph /  4.7km/h 7mph /  11.3km/h 61% 0in /  0.0mm 116 W/m2
18:54 73.6 °F /  23.1 °C 59.7 °F /  15.4 °C 29.8in /  1007.8hPa NNW 4mph /  6.4km/h 10mph /  16.1km/h 62% 0in /  0.0mm 83 W/m2
18:59 73.2 °F /  22.9 °C 59.4 °F /  15.2 °C 29.8in /  1008.1hPa SW 4mph /  6.4km/h 8mph /  12.9km/h 62% 0in /  0.0mm 97 W/m2
19:15 73.6 °F /  23.1 °C 59.7 °F /  15.4 °C 29.8in /  1007.8hPa NW 2.9mph /  4.7km/h 6mph /  9.7km/h 62% 0in /  0.0mm 269 W/m2
19:20 73.9 °F /  23.3 °C 60.1 °F /  15.6 °C 29.8in /  1007.8hPa West 2.9mph /  4.7km/h 4mph /  6.4km/h 62% 0in /  0.0mm 204 W/m2
19:25 74.3 °F /  23.5 °C 59.9 °F /  15.5 °C 29.8in /  1007.8hPa North 0.9mph /  1.4km/h 6mph /  9.7km/h 61% 0in /  0.0mm 192 W/m2
19:30 74.3 °F /  23.5 °C 59.9 °F /  15.5 °C 29.8in /  1007.8hPa SW 2.9mph /  4.7km/h 8mph /  12.9km/h 61% 0in /  0.0mm 35 W/m2
19:35 73.2 °F /  22.9 °C 59.4 °F /  15.2 °C 29.8in /  1007.5hPa WNW 4.9mph /  7.9km/h 9mph /  14.5km/h 62% 0in /  0.0mm 49 W/m2
19:40 73 °F /  22.8 °C 59.7 °F /  15.4 °C 29.8in /  1007.8hPa NNW 2mph /  3.2km/h 5mph /  8km/h 63% 0in /  0.0mm 220 W/m2
19:46 72.9 °F /  22.7 °C 59.5 °F /  15.3 °C 29.8in /  1007.8hPa NW 0.9mph /  1.4km/h 9mph /  14.5km/h 63% 0in /  0.0mm 54 W/m2
19:51 72.9 °F /  22.7 °C 59 °F /  15 °C 29.8in /  1007.8hPa NNW 0.9mph /  1.4km/h 9mph /  14.5km/h 62% 0in /  0.0mm 197 W/m2
19:56 72.9 °F /  22.7 °C 59 °F /  15 °C 29.8in /  1007.8hPa SSW 2.9mph /  4.7km/h 6mph /  9.7km/h 62% 0in /  0.0mm 169 W/m2
20:01 73 °F /  22.8 °C 58.8 °F /  14.9 °C 29.8in /  1007.8hPa WNW 0.9mph /  1.4km/h 6mph /  9.7km/h 61% 0in /  0.0mm 142 W/m2
20:06 73 °F /  22.8 °C 58.8 °F /  14.9 °C 29.8in /  1007.8hPa West 0.9mph /  1.4km/h 5mph /  8km/h 61% 0in /  0.0mm 95 W/m2
20:11 72.7 °F /  22.6 °C 58.8 °F /  14.9 °C 29.8in /  1007.8hPa NW 2mph /  3.2km/h 4mph /  6.4km/h 62% 0in /  0.0mm 23 W/m2
20:16 72.3 °F /  22.4 °C 59 °F /  15 °C 29.8in /  1007.8hPa NW 2.9mph /  4.7km/h 3mph /  4.8km/h 63% 0in /  0.0mm 19 W/m2
20:21 71.8 °F /  22.1 °C 59 °F /  15 °C 29.8in /  1007.8hPa WNW 0.9mph /  1.4km/h 2mph /  3.2km/h 64% 0in /  0.0mm 19 W/m2
20:26 71.2 °F /  21.8 °C 58.5 °F /  14.7 °C 29.8in /  1007.8hPa NW 2.9mph /  4.7km/h 10mph /  16.1km/h 64% 0in /  0.0mm 21 W/m2
20:31 71.1 °F /  21.7 °C 58.6 °F /  14.8 °C 29.8in /  1007.8hPa WNW 2mph /  3.2km/h 3mph /  4.8km/h 65% 0in /  0.0mm 51 W/m2
20:36 70.9 °F /  21.6 °C 58.1 °F /  14.5 °C 29.8in /  1008.1hPa NW 2mph /  3.2km/h 6mph /  9.7km/h 64% 0in /  0.0mm 28 W/m2
20:41 70.3 °F /  21.3 °C 58.1 °F /  14.5 °C 29.8in /  1008.1hPa WNW 2mph /  3.2km/h 2mph /  3.2km/h 65% 0in /  0.0mm 21 W/m2
20:46 70.2 °F /  21.2 °C 57.9 °F /  14.4 °C 29.8in /  1008.1hPa Calm   3mph /  4.8km/h 65% 0in /  0.0mm 21 W/m2
20:51 70 °F /  21.1 °C 58.1 °F /  14.5 °C 29.8in /  1008.1hPa WSW 0.9mph /  1.4km/h 3mph /  4.8km/h 66% 0in /  0.0mm 18 W/m2
20:56 69.8 °F /  21 °C 57.9 °F /  14.4 °C 29.8in /  1008.1hPa WNW 2mph /  3.2km/h 3mph /  4.8km/h 66% 0in /  0.0mm 12 W/m2
21:01 69.6 °F /  20.9 °C 57.7 °F /  14.3 °C 29.8in /  1008.5hPa NW 0.9mph /  1.4km/h 1mph /  1.6km/h 66% 0in /  0.0mm 11 W/m2
21:18 68.4 °F /  20.2 °C 57 °F /  13.9 °C 29.8in /  1008.5hPa WNW 0.9mph /  1.4km/h 7mph /  11.3km/h 67% 0in /  0.0mm 5 W/m2
21:23 67.8 °F /  19.9 °C 56.5 °F /  13.6 °C 29.8in /  1008.5hPa West 2mph /  3.2km/h 5mph /  8km/h 67% 0in /  0.0mm 0 W/m2
21:28 67.6 °F /  19.8 °C 55 °F /  12.8 °C 29.8in /  1008.5hPa WSW 2mph /  3.2km/h 7mph /  11.3km/h 64% 0in /  0.0mm 0 W/m2
21:33 67.5 °F /  19.7 °C 54.9 °F /  12.7 °C 29.8in /  1008.8hPa SW 0.9mph /  1.4km/h 7mph /  11.3km/h 64% 0in /  0.0mm 0 W/m2
21:38 67.3 °F /  19.6 °C 54.3 °F /  12.4 °C 29.8in /  1008.8hPa WSW 2mph /  3.2km/h 6mph /  9.7km/h 63% 0in /  0.0mm 0 W/m2
21:43 66.9 °F /  19.4 °C 54 °F /  12.2 °C 29.8in /  1008.8hPa WSW 2mph /  3.2km/h 4mph /  6.4km/h 63% 0in /  0.0mm 0 W/m2
21:48 66.9 °F /  19.4 °C 54 °F /  12.2 °C 29.8in /  1008.8hPa West 2mph /  3.2km/h 4mph /  6.4km/h 63% 0in /  0.0mm 0 W/m2
21:53 66.7 °F /  19.3 °C 54.1 °F /  12.3 °C 29.8in /  1009.1hPa Calm   1mph /  1.6km/h 64% 0in /  0.0mm 0 W/m2
21:58 66.4 °F /  19.1 °C 53.8 °F /  12.1 °C 29.8in /  1009.1hPa Calm   2mph /  3.2km/h 64% 0in /  0.0mm 0 W/m2
22:03 66 °F /  18.9 °C 54 °F /  12.2 °C 29.8in /  1009.1hPa Calm   2mph /  3.2km/h 65% 0in /  0.0mm 0 W/m2
22:08 65.8 °F /  18.8 °C 54.5 °F /  12.5 °C 29.8in /  1009.1hPa Calm   1mph /  1.6km/h 67% 0in /  0.0mm 0 W/m2
22:13 65.5 °F /  18.6 °C 54.3 °F /  12.4 °C 29.8in /  1009.1hPa West 0.9mph /  1.4km/h 1mph /  1.6km/h 67% 0in /  0.0mm 0 W/m2
22:18 64.9 °F /  18.3 °C 54.1 °F /  12.3 °C 29.8in /  1009.1hPa Calm   1mph /  1.6km/h 68% 0in /  0.0mm 0 W/m2
22:23 64.2 °F /  17.9 °C 53.8 °F /  12.1 °C 29.8in /  1009.1hPa Calm   2mph /  3.2km/h 69% 0in /  0.0mm 0 W/m2
22:28 64 °F /  17.8 °C 54.1 °F /  12.3 °C 29.8in /  1009.1hPa Calm   1mph /  1.6km/h 70% 0in /  0.0mm 0 W/m2
22:33 63.7 °F /  17.6 °C 54.1 °F /  12.3 °C 29.8in /  1009.1hPa Calm   2mph /  3.2km/h 71% 0in /  0.0mm 0 W/m2
22:50 62.8 °F /  17.1 °C 53.6 °F /  12 °C 29.8in /  1009.1hPa Calm   1mph /  1.6km/h 72% 0in /  0.0mm 0 W/m2
22:55 62.4 °F /  16.9 °C 52.9 °F /  11.6 °C 29.8in /  1009.1hPa Calm   1mph /  1.6km/h 71% 0in /  0.0mm 0 W/m2
23:00 62.4 °F /  16.9 °C 53.2 °F /  11.8 °C 29.8in /  1009.1hPa WNW 0.9mph /  1.4km/h 1mph /  1.6km/h 72% 0in /  0.0mm 0 W/m2
23:05 62.2 °F /  16.8 °C 53.4 °F /  11.9 °C 29.8in /  1009.1hPa Calm   1mph /  1.6km/h 73% 0in /  0.0mm 0 W/m2
23:23 61.9 °F /  16.6 °C 52.7 °F /  11.5 °C 29.8in /  1009.5hPa Calm   1mph /  1.6km/h 72% 0in /  0.0mm 0 W/m2
23:28 61.9 °F /  16.6 °C 52.7 °F /  11.5 °C 29.8in /  1009.5hPa East 0.9mph /  1.4km/h 1mph /  1.6km/h 72% 0in /  0.0mm 0 W/m2
23:33 62.1 °F /  16.7 °C 52.9 °F /  11.6 °C 29.8in /  1009.5hPa East 0.9mph /  1.4km/h 2mph /  3.2km/h 72% 0in /  0.0mm 0 W/m2
23:38 62.1 °F /  16.7 °C 52.9 °F /  11.6 °C 29.8in /  1009.5hPa ESE 2mph /  3.2km/h 3mph /  4.8km/h 72% 0in /  0.0mm 0 W/m2
23:43 62.1 °F /  16.7 °C 52.9 °F /  11.6 °C 29.8in /  1009.5hPa SE 2mph /  3.2km/h 2mph /  3.2km/h 72% 0in /  0.0mm 0 W/m2
23:48 62.2 °F /  16.8 °C 52.7 °F /  11.5 °C 29.8in /  1009.5hPa Calm   2mph /  3.2km/h 71% 0in /  0.0mm 0 W/m2
23:53 62.4 °F /  16.9 °C 52.5 °F /  11.4 °C 29.8in /  1009.5hPa Calm   2mph /  3.2km/h 70% 0in /  0.0mm 0 W/m2
23:58 62.4 °F /  16.9 °C 52.5 °F /  11.4 °C 29.8in /  1009.5hPa Calm   1mph /  1.6km/h 70% 0in /  0.0mm 0 W/m2
Juneau County Weather
Compliments of Weather Underground - 4 mb